Time;durP1;ratioP1;P1;durP2;ratioP2;P2;SDS_P1;SDS_P2;PMS_P1;PMS_P2;Temp;Humidity;BMP_temperature;BMP_pressure;BME280_temperature;BME280_humidity;BME280_pressure;Samples;Min_cycle;Max_cycle;Signal;HPM_P1;HPM_P2
2022/04/02 00:02:09;;;;;;;1.53;0.90;;;6.20;46.60;;;;;;5070450;28;20291;-45
2022/04/02 00:04:36;;;;;;;1.40;1.07;;;6.20;46.10;;;;;;5067922;28;20201;-43
2022/04/02 00:07:07;;;;;;;1.53;0.90;;;6.20;46.40;;;;;;5068576;28;20280;-44
2022/04/02 00:09:34;;;;;;;1.30;0.80;;;6.20;47.20;;;;;;5069438;28;20615;-44
2022/04/02 00:12:02;;;;;;;2.30;1.10;;;6.20;47.40;;;;;;5066736;28;20203;-42
2022/04/02 00:14:29;;;;;;;1.17;0.80;;;6.20;47.80;;;;;;5060680;28;20236;-43
2022/04/02 00:16:56;;;;;;;3.13;0.93;;;6.10;47.70;;;;;;5055709;28;20733;-44
2022/04/02 00:19:23;;;;;;;0.77;0.77;;;6.10;48.10;;;;;;5064709;28;21121;-43
2022/04/02 00:21:50;;;;;;;1.57;1.00;;;6.10;48.40;;;;;;5064396;28;20219;-42
2022/04/02 00:24:19;;;;;;;1.10;0.83;;;6.10;48.60;;;;;;5064315;28;20203;-44
2022/04/02 00:26:46;;;;;;;1.17;1.00;;;6.10;49.30;;;;;;5063314;28;20186;-45
2022/04/02 00:29:13;;;;;;;1.53;0.93;;;6.10;49.40;;;;;;5064443;28;20254;-43
2022/04/02 00:31:41;;;;;;;3.47;1.30;;;6.10;49.60;;;;;;5061771;28;20190;-42
2022/04/02 00:34:09;;;;;;;1.50;0.87;;;6.10;49.80;;;;;;5062505;28;20205;-44
2022/04/02 00:36:37;;;;;;;1.67;0.83;;;6.00;50.20;;;;;;5069755;28;20205;-42
2022/04/02 00:39:07;;;;;;;2.47;1.00;;;6.10;51.10;;;;;;5064958;28;20208;-43
2022/04/02 00:41:36;;;;;;;1.57;0.80;;;6.00;50.60;;;;;;5060332;28;20812;-43
2022/04/02 00:44:10;;;;;;;1.33;0.87;;;6.00;50.60;;;;;;5062286;28;20569;-44
2022/04/02 00:46:38;;;;;;;1.90;1.10;;;6.00;50.60;;;;;;5062767;28;20201;-43
2022/04/02 00:49:06;;;;;;;1.57;0.80;;;5.90;50.80;;;;;;5062527;28;20669;-42
2022/04/02 00:51:41;;;;;;;3.27;0.90;;;5.90;51.20;;;;;;5069427;28;20204;-42
2022/04/02 00:54:10;;;;;;;2.77;0.80;;;5.90;51.50;;;;;;5069403;28;20212;-46
2022/04/02 00:56:39;;;;;;;2.40;1.20;;;5.90;51.80;;;;;;5070278;28;20192;-44
2022/04/02 00:59:08;;;;;;;2.20;1.00;;;5.90;52.00;;;;;;5066807;28;20206;-41
2022/04/02 01:01:37;;;;;;;3.80;1.10;;;5.90;52.00;;;;;;5067917;28;20208;-44
2022/04/02 01:04:06;;;;;;;1.53;0.80;;;5.80;52.00;;;;;;5063798;28;20228;-42
2022/04/02 01:06:41;;;;;;;5.23;1.30;;;5.90;52.00;;;;;;5067509;28;20207;-44
2022/04/02 01:09:13;;;;;;;1.70;0.90;;;5.80;51.90;;;;;;5069064;28;20200;-42
2022/04/02 01:11:44;;;;;;;2.40;1.10;;;5.90;52.10;;;;;;5068925;28;20254;-44
2022/04/02 01:14:12;;;;;;;1.87;1.00;;;5.90;52.30;;;;;;5063300;28;21078;-42
2022/04/02 01:16:43;;;;;;;1.10;0.90;;;5.90;52.40;;;;;;5069419;28;20250;-44
2022/04/02 01:19:18;;;;;;;1.10;0.83;;;5.80;52.50;;;;;;5067949;28;20208;-46
2022/04/02 01:21:46;;;;;;;1.83;1.00;;;5.80;52.80;;;;;;5063465;28;20711;-43
2022/04/02 01:24:37;;;;;;;3.40;0.93;;;5.80;52.80;;;;;;5062117;28;20205;-43
2022/04/02 01:27:05;;;;;;;1.57;1.03;;;5.80;52.80;;;;;;5069404;28;20212;-43
2022/04/02 01:29:33;;;;;;;1.57;1.00;;;5.80;52.80;;;;;;5064950;28;20193;-41
2022/04/02 01:32:01;;;;;;;3.40;1.27;;;5.80;52.70;;;;;;5062699;28;20220;-44
2022/04/02 01:34:32;;;;;;;1.20;0.97;;;5.80;52.70;;;;;;5060131;28;20240;-42
2022/04/02 01:37:09;;;;;;;0.80;0.80;;;5.90;53.00;;;;;;5064969;28;20236;-43
2022/04/02 01:39:43;;;;;;;2.83;1.00;;;5.80;52.90;;;;;;5068819;28;20596;-45
2022/04/02 01:42:14;;;;;;;2.97;1.10;;;5.80;52.90;;;;;;5061792;28;20208;-46
2022/04/02 01:44:51;;;;;;;2.20;1.00;;;5.80;53.10;;;;;;5072686;28;20734;-43
2022/04/02 01:47:24;;;;;;;1.13;1.00;;;5.80;53.10;;;;;;5073073;28;20215;-43
2022/04/02 01:49:55;;;;;;;2.33;1.10;;;5.80;53.10;;;;;;5066683;28;20289;-45
2022/04/02 01:52:23;;;;;;;3.97;1.03;;;5.70;53.50;;;;;;5099942;28;20295;-45
2022/04/02 01:54:51;;;;;;;4.93;1.10;;;5.70;52.70;;;;;;5056250;28;20213;-44
2022/04/02 01:57:19;;;;;;;1.50;0.83;;;5.70;52.60;;;;;;5067104;28;20281;-44
2022/04/02 01:59:48;;;;;;;2.93;1.00;;;5.70;52.50;;;;;;5060586;28;20205;-49
2022/04/02 02:02:20;;;;;;;3.07;1.10;;;5.60;52.70;;;;;;5068517;28;20205;-48
2022/04/02 02:04:48;;;;;;;3.40;0.80;;;5.70;52.90;;;;;;5071031;28;20278;-49
2022/04/02 02:07:15;;;;;;;2.60;1.07;;;5.60;52.90;;;;;;5069815;28;20193;-49
2022/04/02 02:09:49;;;;;;;2.93;0.90;;;5.70;52.90;;;;;;5072129;28;20291;-44
2022/04/02 02:12:30;;;;;;;1.03;0.70;;;5.60;53.10;;;;;;5072536;28;20193;-46
2022/04/02 02:15:06;;;;;;;3.33;1.37;;;5.70;53.50;;;;;;5071509;28;20405;-48
2022/04/02 02:17:33;;;;;;;1.37;1.00;;;5.60;53.30;;;;;;5102328;28;20205;-45
2022/04/02 02:20:02;;;;;;;4.20;1.10;;;5.60;53.00;;;;;;5066547;28;20295;-50
2022/04/02 02:22:29;;;;;;;2.50;1.00;;;5.70;53.00;;;;;;5067178;28;20255;-45
2022/04/02 02:24:58;;;;;;;6.63;0.93;;;5.70;52.90;;;;;;5066013;28;20743;-48
2022/04/02 02:27:25;;;;;;;5.30;1.00;;;5.60;52.80;;;;;;5094848;28;20201;-50
2022/04/02 02:29:53;;;;;;;2.03;0.93;;;5.60;52.90;;;;;;5069398;28;20573;-47
2022/04/02 02:32:22;;;;;;;6.47;1.10;;;5.70;53.10;;;;;;5069345;28;20212;-43
2022/04/02 02:38:03;;;;;;;3.67;1.03;;;5.70;53.20;;;;;;4986404;28;20653;-45
2022/04/02 02:40:36;;;;;;;2.07;1.10;;;5.70;53.30;;;;;;4984617;28;20601;-43
2022/04/02 02:43:03;;;;;;;2.17;0.90;;;5.60;52.80;;;;;;5033409;28;20297;-45
2022/04/02 02:45:33;;;;;;;2.43;1.00;;;5.60;51.90;;;;;;5088705;28;20596;-42
2022/04/02 02:48:04;;;;;;;2.03;1.20;;;5.60;51.50;;;;;;5068356;28;20225;-42
2022/04/02 02:50:42;;;;;;;2.33;0.80;;;5.60;51.30;;;;;;5067108;28;20295;-43
2022/04/02 02:53:11;;;;;;;2.03;1.03;;;5.60;51.10;;;;;;5058547;28;20208;-43
2022/04/02 02:55:41;;;;;;;5.50;1.00;;;5.50;51.00;;;;;;5070197;28;20292;-44
2022/04/02 02:58:09;;;;;;;3.20;0.90;;;5.50;51.20;;;;;;5059855;28;20189;-40
2022/04/02 03:00:40;;;;;;;4.30;1.07;;;5.50;51.30;;;;;;5069974;28;20205;-43
2022/04/02 03:03:12;;;;;;;2.27;1.10;;;5.50;50.60;;;;;;5068623;28;20208;-43
2022/04/02 03:05:41;;;;;;;2.97;0.80;;;5.50;50.40;;;;;;5068837;28;20194;-45
2022/04/02 03:08:12;;;;;;;1.80;1.10;;;5.50;50.60;;;;;;5071255;28;20266;-41
2022/04/02 03:10:50;;;;;;;1.67;0.97;;;5.50;50.10;;;;;;5070824;28;20277;-43
2022/04/02 03:13:23;;;;;;;1.37;0.70;;;5.50;49.40;;;;;;5071295;28;20220;-44
2022/04/02 03:15:53;;;;;;;0.90;0.80;;;5.50;49.60;;;;;;5068236;28;20225;-42
2022/04/02 03:18:20;;;;;;;2.13;0.70;;;5.50;49.80;;;;;;5069005;28;20205;-42
2022/04/02 03:20:48;;;;;;;2.60;0.80;;;5.50;49.20;;;;;;5068829;28;20243;-43
2022/04/02 03:23:23;;;;;;;1.03;0.87;;;5.50;49.00;;;;;;5068083;28;20265;-42
2022/04/02 03:25:51;;;;;;;2.17;1.00;;;5.50;49.20;;;;;;5066152;28;20763;-43
2022/04/02 03:28:19;;;;;;;2.07;1.13;;;5.60;49.80;;;;;;5067671;28;20616;-47
2022/04/02 03:30:46;;;;;;;1.37;0.90;;;5.60;49.90;;;;;;5068634;28;20201;-42
2022/04/02 03:33:14;;;;;;;1.53;1.00;;;5.60;50.10;;;;;;5069604;28;20208;-41
2022/04/02 03:35:43;;;;;;;1.70;0.80;;;5.60;50.10;;;;;;5064775;28;20211;-42
2022/04/02 03:38:10;;;;;;;2.13;0.80;;;5.60;50.10;;;;;;5070562;28;20204;-45
2022/04/02 03:40:42;;;;;;;1.40;0.83;;;5.60;49.20;;;;;;5063725;28;20673;-44
2022/04/02 03:43:13;;;;;;;2.40;1.00;;;5.60;48.80;;;;;;5070491;28;20714;-43
2022/04/02 03:45:40;;;;;;;2.43;1.03;;;5.60;48.80;;;;;;5066776;28;20292;-45
2022/04/02 03:48:10;;;;;;;6.10;1.00;;;5.60;48.80;;;;;;5059702;28;20215;-44
2022/04/02 03:50:41;;;;;;;1.63;0.70;;;5.50;48.90;;;;;;5052991;28;20206;-45
2022/04/02 03:53:15;;;;;;;1.80;1.03;;;5.50;48.70;;;;;;5058315;28;20720;-42
2022/04/02 03:55:54;;;;;;;2.63;0.70;;;5.50;48.50;;;;;;5069764;28;20303;-42
2022/04/02 03:58:31;;;;;;;1.93;0.80;;;5.50;48.40;;;;;;5070110;28;20208;-44
2022/04/02 04:00:58;;;;;;;3.17;0.90;;;5.50;48.30;;;;;;5068764;28;20201;-41
2022/04/02 04:03:26;;;;;;;2.00;0.80;;;5.50;48.20;;;;;;5068997;28;20205;-47
2022/04/02 04:05:55;;;;;;;3.30;0.97;;;5.50;48.30;;;;;;5069218;28;20212;-43
2022/04/02 04:08:25;;;;;;;1.87;1.00;;;5.40;48.20;;;;;;5069175;28;20193;-43
2022/04/02 04:10:55;;;;;;;3.47;0.80;;;5.40;47.60;;;;;;5065142;28;20228;-45
2022/04/02 04:13:22;;;;;;;3.43;0.80;;;5.50;47.30;;;;;;5070068;28;20204;-47
2022/04/02 04:15:52;;;;;;;4.87;1.13;;;5.50;47.40;;;;;;5053363;28;20730;-43
2022/04/02 04:18:20;;;;;;;2.20;1.00;;;5.50;47.20;;;;;;5068538;28;20212;-45
2022/04/02 04:20:49;;;;;;;1.77;0.90;;;5.50;47.00;;;;;;5067331;28;20209;-45
2022/04/02 04:23:23;;;;;;;0.73;0.73;;;5.50;47.20;;;;;;5064407;28;20688;-44
2022/04/02 04:25:51;;;;;;;1.50;0.90;;;5.50;47.40;;;;;;5067983;28;20235;-43
2022/04/02 04:28:19;;;;;;;1.87;0.87;;;5.50;47.60;;;;;;5067322;28;20220;-47
2022/04/02 04:30:48;;;;;;;1.17;0.77;;;5.50;47.90;;;;;;5092679;28;20604;-41
2022/04/02 04:33:17;;;;;;;3.10;0.90;;;5.40;47.70;;;;;;5065191;28;20213;-42
2022/04/02 04:35:44;;;;;;;4.43;1.23;;;5.50;47.40;;;;;;5063807;28;20347;-42
2022/04/02 04:38:13;;;;;;;9.10;1.50;;;5.40;47.20;;;;;;5069182;28;20205;-43
2022/04/02 04:40:41;;;;;;;6.07;0.97;;;5.40;46.80;;;;;;5062966;28;20258;-45
2022/04/02 04:43:08;;;;;;;5.83;1.37;;;5.40;46.90;;;;;;5057902;28;20751;-47
2022/04/02 04:45:43;;;;;;;6.03;1.37;;;5.40;47.20;;;;;;5064776;28;20694;-44
2022/04/02 04:48:11;;;;;;;2.70;1.20;;;5.40;47.60;;;;;;5067874;28;20301;-41
2022/04/02 04:50:47;;;;;;;3.47;1.07;;;5.40;48.00;;;;;;5053185;28;20649;-44
2022/04/02 04:53:14;;;;;;;4.03;1.00;;;5.50;47.90;;;;;;5068991;28;20205;-45
2022/04/02 04:55:42;;;;;;;2.90;1.20;;;5.40;47.60;;;;;;5068647;28;20217;-42
2022/04/02 04:58:13;;;;;;;3.33;1.10;;;5.40;47.50;;;;;;5068206;28;20209;-42
2022/04/02 05:00:41;;;;;;;2.07;0.83;;;5.40;47.90;;;;;;5067777;28;20285;-42
2022/04/02 05:03:10;;;;;;;2.77;0.90;;;5.50;48.50;;;;;;5067673;28;20710;-46
2022/04/02 05:05:50;;;;;;;2.50;1.13;;;5.40;48.90;;;;;;5065353;28;20198;-42
2022/04/02 05:08:22;;;;;;;3.03;0.90;;;5.50;48.90;;;;;;5068995;28;20203;-45
2022/04/02 05:10:51;;;;;;;3.13;1.07;;;5.50;48.70;;;;;;5063595;28;20545;-48
2022/04/02 05:13:28;;;;;;;6.27;1.10;;;5.50;49.50;;;;;;5065811;28;20204;-43
2022/04/02 05:15:58;;;;;;;3.10;1.10;;;5.50;49.20;;;;;;5086934;28;20220;-50
2022/04/02 05:18:27;;;;;;;3.67;1.30;;;5.50;49.40;;;;;;5062892;28;20208;-44
2022/04/02 05:20:57;;;;;;;12.03;1.40;;;5.50;49.80;;;;;;5091031;28;20212;-45
2022/04/02 05:23:25;;;;;;;5.37;1.03;;;5.60;50.10;;;;;;5067768;28;20604;-43
2022/04/02 05:25:56;;;;;;;10.17;1.50;;;5.60;50.30;;;;;;5068028;28;20274;-45
2022/04/02 05:28:27;;;;;;;4.47;1.30;;;5.60;50.50;;;;;;5060335;28;20205;-46
2022/04/02 05:30:55;;;;;;;4.83;1.00;;;5.60;50.30;;;;;;5082903;28;20205;-44
2022/04/02 05:33:22;;;;;;;3.97;1.30;;;5.60;50.30;;;;;;5056963;28;20687;-45
2022/04/02 05:35:50;;;;;;;7.90;1.37;;;5.70;50.90;;;;;;5063940;28;20223;-42
2022/04/02 05:38:18;;;;;;;3.23;1.20;;;5.70;51.00;;;;;;5059983;28;20198;-47
2022/04/02 05:40:46;;;;;;;2.07;1.00;;;5.70;51.20;;;;;;5067472;28;20224;-50
2022/04/02 05:43:13;;;;;;;3.03;0.93;;;5.80;50.50;;;;;;5068564;28;20201;-52
2022/04/02 05:45:40;;;;;;;7.30;0.90;;;5.80;49.50;;;;;;5067059;28;20224;-49
2022/04/02 05:48:08;;;;;;;1.03;1.00;;;5.80;49.50;;;;;;5060094;28;20203;-50
2022/04/02 05:50:35;;;;;;;3.07;1.00;;;5.80;49.80;;;;;;5053456;28;20289;-48
2022/04/02 05:53:03;;;;;;;1.80;0.90;;;5.80;50.10;;;;;;5068302;28;20205;-43
2022/04/02 05:55:32;;;;;;;3.27;1.00;;;5.90;50.90;;;;;;5069855;28;20209;-48
2022/04/02 05:57:59;;;;;;;5.37;1.00;;;5.90;51.10;;;;;;5068673;28;20305;-45
2022/04/02 06:00:27;;;;;;;5.50;1.30;;;5.90;50.90;;;;;;5068368;28;20197;-46
2022/04/02 06:02:54;;;;;;;5.33;1.33;;;6.00;51.10;;;;;;5066998;28;20200;-47
2022/04/02 06:05:22;;;;;;;1.90;1.07;;;6.00;51.50;;;;;;5067486;28;20254;-46
2022/04/02 06:07:49;;;;;;;5.20;1.10;;;6.00;51.90;;;;;;5067065;28;20211;-47
2022/04/02 06:10:16;;;;;;;4.30;0.97;;;6.10;51.70;;;;;;5065724;28;20212;-42
2022/04/02 06:12:47;;;;;;;2.03;0.63;;;6.10;52.00;;;;;;5065846;28;20197;-43
2022/04/02 06:15:15;;;;;;;3.33;1.10;;;6.10;51.30;;;;;;5064693;28;20274;-42
2022/04/02 06:17:42;;;;;;;6.33;1.03;;;6.20;51.50;;;;;;5066823;28;20645;-42
2022/04/02 06:20:10;;;;;;;3.10;0.90;;;6.20;51.40;;;;;;5063741;28;20209;-45
2022/04/02 06:22:37;;;;;;;2.27;1.00;;;6.30;51.20;;;;;;5063870;28;20603;-44
2022/04/02 06:25:05;;;;;;;6.50;1.17;;;6.30;51.20;;;;;;5062374;28;20201;-43
2022/04/02 06:27:33;;;;;;;8.47;1.83;;;6.40;51.50;;;;;;5063016;28;20250;-49
2022/04/02 06:30:01;;;;;;;3.17;1.07;;;6.40;51.60;;;;;;5063000;28;20205;-42
2022/04/02 06:32:29;;;;;;;3.33;1.20;;;6.50;51.30;;;;;;5065909;28;20276;-41
2022/04/02 06:34:56;;;;;;;2.00;1.00;;;6.50;50.90;;;;;;5063323;28;20697;-45
2022/04/02 06:37:23;;;;;;;2.03;1.10;;;6.50;50.70;;;;;;5070632;28;20700;-43
2022/04/02 06:39:51;;;;;;;2.93;1.23;;;6.50;50.50;;;;;;5062373;28;20198;-44
2022/04/02 06:42:19;;;;;;;2.50;1.00;;;6.60;50.30;;;;;;5064107;28;20193;-42
2022/04/02 06:44:51;;;;;;;7.73;1.30;;;6.60;50.30;;;;;;5067679;28;20239;-41
2022/04/02 06:47:26;;;;;;;5.37;1.10;;;6.60;49.40;;;;;;5065652;28;20216;-43
2022/04/02 06:49:53;;;;;;;2.57;1.10;;;6.70;48.80;;;;;;5065493;28;20665;-42
2022/04/02 06:52:20;;;;;;;4.13;0.90;;;6.70;48.60;;;;;;5098614;28;20263;-45
2022/04/02 06:54:47;;;;;;;10.33;1.13;;;6.70;48.80;;;;;;5072443;28;20217;-42
2022/04/02 06:57:18;;;;;;;3.93;1.10;;;6.80;48.40;;;;;;5072081;28;20681;-43
2022/04/02 06:59:45;;;;;;;0.93;0.80;;;6.70;48.10;;;;;;5071403;28;20579;-44
2022/04/02 07:02:13;;;;;;;3.17;1.00;;;6.80;48.10;;;;;;5070113;28;20209;-44
2022/04/02 07:04:41;;;;;;;1.80;0.90;;;6.80;47.70;;;;;;5068905;28;20662;-41
2022/04/02 07:07:09;;;;;;;12.80;1.30;;;6.90;48.10;;;;;;5069369;28;20294;-44
2022/04/02 07:09:36;;;;;;;11.17;1.23;;;7.00;48.50;;;;;;5068743;28;20197;-42
2022/04/02 07:12:04;;;;;;;5.43;1.00;;;7.00;47.50;;;;;;5069099;28;20209;-43
2022/04/02 07:14:31;;;;;;;4.93;1.40;;;7.00;46.30;;;;;;5072136;28;20320;-42
2022/04/02 07:16:59;;;;;;;4.63;1.00;;;7.10;46.30;;;;;;5072051;28;20200;-43
2022/04/02 07:19:27;;;;;;;12.00;1.30;;;7.20;46.40;;;;;;5071080;28;20557;-42
2022/04/02 07:21:56;;;;;;;13.70;1.40;;;7.30;46.50;;;;;;5071634;28;20747;-43
2022/04/02 07:24:24;;;;;;;6.87;1.33;;;7.30;46.30;;;;;;5072117;28;20196;-43
2022/04/02 07:26:54;;;;;;;6.63;1.23;;;7.30;46.10;;;;;;5071013;28;20201;-43
2022/04/02 07:29:21;;;;;;;3.53;1.00;;;7.40;46.10;;;;;;5071993;28;20243;-46
2022/04/02 07:31:49;;;;;;;1.37;1.00;;;7.50;46.10;;;;;;5072106;28;20197;-46
2022/04/02 07:34:16;;;;;;;18.07;1.50;;;7.60;45.40;;;;;;5070971;28;20196;-44
2022/04/02 07:36:56;;;;;;;9.33;1.93;;;7.70;44.20;;;;;;5072383;28;20232;-45
2022/04/02 07:39:32;;;;;;;10.40;1.67;;;7.70;43.70;;;;;;5071723;28;20244;-45
2022/04/02 07:42:07;;;;;;;4.57;1.00;;;7.80;44.00;;;;;;5065721;28;20339;-45
2022/04/02 07:44:45;;;;;;;1.60;0.90;;;7.90;43.90;;;;;;5071594;28;20193;-41
2022/04/02 07:47:15;;;;;;;12.27;1.20;;;7.90;43.90;;;;;;5067879;28;20191;-49
2022/04/02 07:49:46;;;;;;;4.70;1.00;;;8.00;43.40;;;;;;5060945;28;20662;-42
2022/04/02 07:52:14;;;;;;;7.00;1.20;;;8.00;42.50;;;;;;5064502;28;20566;-42
2022/04/02 07:54:45;;;;;;;4.23;1.00;;;8.00;41.80;;;;;;5070328;28;20245;-44
2022/04/02 07:57:15;;;;;;;8.17;1.20;;;8.00;40.90;;;;;;5070945;28;20558;-47
2022/04/02 07:59:58;;;;;;;2.40;1.00;;;8.00;40.80;;;;;;5064952;28;20726;-47
2022/04/02 08:02:42;;;;;;;8.93;1.20;;;8.00;41.10;;;;;;5065169;28;20242;-43
2022/04/02 08:05:11;;;;;;;13.97;1.53;;;8.10;41.90;;;;;;5070498;28;20215;-42
2022/04/02 08:07:43;;;;;;;5.03;0.90;;;8.20;42.30;;;;;;5065810;28;20605;-43
2022/04/02 08:10:13;;;;;;;2.23;0.83;;;8.20;41.80;;;;;;5068195;28;20253;-43
2022/04/02 08:12:46;;;;;;;6.37;0.87;;;8.30;42.00;;;;;;5063024;28;20263;-42
2022/04/02 08:15:16;;;;;;;5.83;1.07;;;8.30;42.10;;;;;;5060914;28;20231;-42
2022/04/02 08:17:45;;;;;;;4.20;1.00;;;8.40;41.90;;;;;;5064033;28;20226;-45
2022/04/02 08:20:16;;;;;;;5.73;0.87;;;8.50;41.70;;;;;;5063257;28;20208;-44
2022/04/02 08:22:43;;;;;;;10.83;1.17;;;8.60;41.60;;;;;;5068309;28;20230;-47
2022/04/02 08:25:12;;;;;;;9.27;1.10;;;8.60;41.20;;;;;;5062944;28;20200;-41
2022/04/02 08:27:53;;;;;;;4.57;1.40;;;8.70;41.00;;;;;;5068030;28;20205;-44
2022/04/02 08:30:29;;;;;;;3.43;1.00;;;8.90;40.90;;;;;;5059841;28;20200;-44
2022/04/02 08:33:19;;;;;;;4.23;1.00;;;9.00;41.60;;;;;;5063327;28;20197;-43
2022/04/02 08:35:58;;;;;;;5.30;1.13;;;9.10;42.40;;;;;;5061281;28;20250;-44
2022/04/02 08:38:35;;;;;;;3.07;1.00;;;9.10;41.40;;;;;;5059695;28;20189;-42
2022/04/02 08:41:43;;;;;;;4.47;0.80;;;9.10;41.50;;;;;;5063949;28;20239;-43
2022/04/02 08:44:47;;;;;;;5.60;1.13;;;9.20;41.60;;;;;;5038105;28;20201;-47
2022/04/02 08:47:33;;;;;;;7.07;1.10;;;9.10;41.10;;;;;;5053682;28;20278;-44
2022/04/02 08:50:09;;;;;;;2.03;0.80;;;9.10;41.40;;;;;;5058326;28;20189;-43
2022/04/02 08:52:55;;;;;;;4.17;1.03;;;9.20;41.50;;;;;;5065616;28;20619;-42
2022/04/02 08:55:26;;;;;;;2.00;1.07;;;9.30;41.00;;;;;;5070256;28;20207;-43
2022/04/02 08:58:09;;;;;;;2.37;0.77;;;9.30;41.00;;;;;;5068831;28;20302;-43
2022/04/02 09:00:40;;;;;;;2.83;1.00;;;9.30;40.90;;;;;;5067908;28;20284;-45
2022/04/02 09:03:46;;;;;;;1.80;0.83;;;9.50;40.50;;;;;;5067870;28;20271;-51
2022/04/02 09:06:58;;;;;;;5.33;1.30;;;9.50;39.90;;;;;;5068009;28;20197;-49
2022/04/02 09:10:06;;;;;;;7.27;1.27;;;9.50;40.60;;;;;;5046356;28;20719;-49
2022/04/02 09:12:46;;;;;;;6.73;1.30;;;9.40;41.10;;;;;;5058634;28;20212;-48
2022/04/02 09:15:20;;;;;;;8.77;1.70;;;9.40;40.20;;;;;;5063342;28;20233;-44
2022/04/02 09:17:58;;;;;;;6.70;1.40;;;9.40;40.30;;;;;;5064693;28;20580;-43
2022/04/02 09:20:39;;;;;;;12.77;1.80;;;9.40;39.70;;;;;;5069364;28;20210;-46
2022/04/02 09:23:15;;;;;;;3.17;1.40;;;9.40;40.10;;;;;;5068006;28;20267;-43
2022/04/02 09:26:18;;;;;;;3.80;1.10;;;9.50;40.50;;;;;;5061005;28;20193;-48
2022/04/02 09:28:52;;;;;;;9.00;1.33;;;9.70;40.80;;;;;;5057968;28;20276;-42
2022/04/02 09:31:59;;;;;;;8.53;1.30;;;9.80;40.30;;;;;;5061610;28;20639;-45
2022/04/02 09:35:03;;;;;;;1.87;1.30;;;9.80;39.40;;;;;;5053776;28;20201;-48
2022/04/02 09:38:01;;;;;;;7.00;1.33;;;9.90;39.50;;;;;;5061487;28;20216;-46
2022/04/02 09:40:37;;;;;;;7.40;1.47;;;10.10;38.60;;;;;;5058089;28;20199;-46
2022/04/02 09:43:14;;;;;;;2.37;1.30;;;10.20;38.10;;;;;;5068725;28;20204;-44
2022/04/02 09:45:52;;;;;;;5.40;1.30;;;10.30;38.10;;;;;;5064587;28;20193;-41
2022/04/02 09:48:26;;;;;;;2.67;1.20;;;10.50;37.90;;;;;;5059280;28;20201;-48
2022/04/02 09:50:56;;;;;;;1.57;1.20;;;10.50;37.20;;;;;;5051632;28;20666;-44
2022/04/02 09:53:29;;;;;;;3.77;1.20;;;10.50;36.80;;;;;;5069741;28;20226;-46
2022/04/02 09:56:10;;;;;;;8.87;1.30;;;10.50;36.80;;;;;;5067086;28;20298;-43
2022/04/02 09:58:50;;;;;;;1.67;1.00;;;10.60;36.60;;;;;;5062275;28;20279;-46
2022/04/02 10:01:27;;;;;;;7.10;1.23;;;10.70;37.30;;;;;;5068869;28;20278;-48
2022/04/02 10:03:59;;;;;;;2.23;1.10;;;10.80;37.40;;;;;;5064677;28;20203;-49
2022/04/02 10:06:28;;;;;;;12.40;1.57;;;10.90;36.90;;;;;;5061727;28;20197;-45
2022/04/02 10:09:05;;;;;;;9.37;1.40;;;10.90;36.10;;;;;;5068400;28;20284;-44
2022/04/02 10:11:34;;;;;;;14.63;2.07;;;10.90;36.10;;;;;;5070752;28;20198;-42
2022/04/02 10:14:04;;;;;;;9.80;1.80;;;10.80;35.00;;;;;;5067311;28;20190;-43
2022/04/02 10:16:32;;;;;;;8.03;1.53;;;10.70;34.70;;;;;;5070472;28;20211;-44
2022/04/02 10:19:02;;;;;;;8.57;1.23;;;10.80;35.60;;;;;;5065721;28;20586;-45
2022/04/02 10:21:31;;;;;;;2.83;1.40;;;10.80;35.70;;;;;;5070931;28;20195;-44
2022/04/02 10:24:11;;;;;;;4.10;1.10;;;11.00;35.80;;;;;;5080628;28;20212;-43
2022/04/02 10:26:40;;;;;;;4.30;1.30;;;11.00;36.20;;;;;;5067391;28;20183;-47
2022/04/02 10:29:12;;;;;;;1.33;0.90;;;10.90;36.20;;;;;;5066423;28;20195;-42
2022/04/02 10:31:48;;;;;;;0.90;0.70;;;10.90;36.20;;;;;;5064945;28;20218;-49
2022/04/02 10:34:26;;;;;;;11.17;1.27;;;11.10;36.40;;;;;;5066377;28;20203;-43
2022/04/02 10:36:56;;;;;;;9.53;1.20;;;11.20;36.40;;;;;;5062057;28;20210;-46
2022/04/02 10:39:26;;;;;;;2.20;1.13;;;11.10;36.20;;;;;;5066984;28;20193;-45
2022/04/02 10:41:57;;;;;;;1.57;1.30;;;11.20;35.80;;;;;;5066518;28;20257;-46
2022/04/02 10:44:38;;;;;;;5.40;1.10;;;11.30;34.50;;;;;;5065760;28;20714;-50
2022/04/02 10:47:09;;;;;;;6.63;1.10;;;11.30;34.70;;;;;;5062275;28;20564;-45
2022/04/02 10:49:40;;;;;;;2.30;1.20;;;11.40;35.10;;;;;;5062570;28;20550;-48
2022/04/02 10:52:13;;;;;;;8.60;1.60;;;11.50;35.00;;;;;;5065452;28;20194;-46
2022/04/02 10:54:48;;;;;;;4.60;1.10;;;11.50;35.10;;;;;;5072050;28;20260;-43
2022/04/02 10:57:15;;;;;;;3.83;1.17;;;11.60;35.50;;;;;;5072236;28;20299;-44
2022/04/02 10:59:47;;;;;;;3.17;1.10;;;11.70;35.70;;;;;;5071623;28;20254;-47
2022/04/02 11:02:22;;;;;;;6.30;1.40;;;11.80;34.90;;;;;;5070554;28;20185;-44
2022/04/02 11:04:59;;;;;;;2.03;1.40;;;11.80;34.20;;;;;;5059514;28;20201;-44
2022/04/02 11:07:30;;;;;;;2.57;1.23;;;11.70;34.30;;;;;;5069315;28;20653;-42
2022/04/02 11:10:00;;;;;;;2.60;1.00;;;11.80;34.40;;;;;;5071278;28;20199;-46
2022/04/02 11:12:29;;;;;;;1.60;1.20;;;11.80;33.90;;;;;;5068240;28;20281;-43
2022/04/02 11:15:08;;;;;;;12.53;1.47;;;12.00;34.50;;;;;;5069679;28;20233;-44
2022/04/02 11:17:37;;;;;;;17.00;2.10;;;12.00;34.40;;;;;;5064798;28;20220;-44
2022/04/02 11:20:09;;;;;;;3.83;1.30;;;11.90;33.80;;;;;;5068798;28;20202;-45
2022/04/02 11:22:50;;;;;;;7.10;1.10;;;11.80;33.20;;;;;;5093387;28;20290;-46
2022/04/02 11:25:24;;;;;;;2.60;1.53;;;11.70;33.80;;;;;;5065572;28;20557;-46
2022/04/02 11:27:54;;;;;;;6.60;1.37;;;11.60;34.50;;;;;;5060013;28;20184;-47
2022/04/02 11:30:22;;;;;;;10.13;1.20;;;11.50;33.80;;;;;;5070918;28;20209;-46
2022/04/02 11:32:51;;;;;;;6.00;1.50;;;11.40;33.00;;;;;;5065212;28;20201;-45
2022/04/02 11:35:22;;;;;;;4.63;1.03;;;11.30;32.60;;;;;;5063152;28;20202;-48
2022/04/02 11:38:09;;;;;;;4.17;1.30;;;11.10;32.80;;;;;;5067210;28;20630;-46
2022/04/02 11:40:42;;;;;;;9.83;1.53;;;11.20;33.50;;;;;;5063654;28;20239;-44
2022/04/02 11:43:10;;;;;;;12.27;1.23;;;11.10;33.60;;;;;;5062687;28;20247;-44
2022/04/02 11:45:38;;;;;;;9.57;1.40;;;11.10;33.50;;;;;;5067696;28;20655;-44
2022/04/02 11:48:13;;;;;;;6.40;1.50;;;11.00;33.20;;;;;;5063913;28;20196;-42
2022/04/02 11:50:43;;;;;;;7.97;1.30;;;11.00;33.60;;;;;;5067748;28;20192;-44
2022/04/02 11:53:11;;;;;;;6.33;1.73;;;10.90;33.60;;;;;;5058666;28;20196;-46
2022/04/02 11:55:41;;;;;;;13.07;2.20;;;10.80;33.30;;;;;;5071563;28;20207;-44
2022/04/02 11:58:09;;;;;;;5.27;1.43;;;10.80;33.60;;;;;;5057714;28;20212;-49
2022/04/02 12:00:38;;;;;;;2.53;1.20;;;10.90;33.30;;;;;;5070235;28;20197;-46
2022/04/02 12:03:20;;;;;;;7.90;1.30;;;11.00;33.00;;;;;;5068331;28;20665;-47
2022/04/02 12:05:49;;;;;;;9.97;2.10;;;11.00;32.90;;;;;;5067726;28;20199;-42
2022/04/02 12:08:28;;;;;;;15.47;2.37;;;10.90;32.60;;;;;;5068966;28;20222;-46
2022/04/02 12:10:57;;;;;;;2.27;1.43;;;10.90;32.80;;;;;;5066635;28;20200;-46
2022/04/02 12:13:24;;;;;;;4.90;1.37;;;10.90;33.00;;;;;;5068598;28;20195;-41
2022/04/02 12:16:03;;;;;;;14.50;1.47;;;11.00;33.10;;;;;;5064974;28;20244;-42
2022/04/02 12:18:31;;;;;;;3.83;1.90;;;11.00;32.20;;;;;;5064949;28;20200;-43
2022/04/02 12:21:07;;;;;;;6.97;1.90;;;11.00;32.30;;;;;;5065863;28;20205;-44
2022/04/02 12:23:36;;;;;;;3.13;1.57;;;11.10;32.90;;;;;;5063646;28;20700;-47
2022/04/02 12:26:06;;;;;;;4.40;1.50;;;11.10;31.80;;;;;;5066195;28;20224;-46
2022/04/02 12:28:45;;;;;;;5.23;1.57;;;11.10;31.90;;;;;;5059749;28;20199;-51
2022/04/02 12:31:13;;;;;;;1.63;1.30;;;11.10;32.30;;;;;;5058053;28;20206;-51
2022/04/02 12:33:49;;;;;;;6.33;1.40;;;11.00;32.70;;;;;;5068468;28;20205;-49
2022/04/02 12:36:18;;;;;;;12.43;1.40;;;11.20;32.90;;;;;;5062660;28;20188;-43
2022/04/02 12:38:47;;;;;;;3.03;1.47;;;11.20;32.80;;;;;;5057336;28;20305;-44
2022/04/02 12:41:24;;;;;;;6.03;1.40;;;11.20;33.20;;;;;;5061768;28;20575;-46
2022/04/02 12:43:58;;;;;;;4.50;2.53;;;11.20;33.60;;;;;;5058139;28;20198;-45
2022/04/02 12:46:27;;;;;;;7.07;1.70;;;11.10;33.30;;;;;;5062184;28;20210;-43
2022/04/02 12:48:56;;;;;;;2.77;1.90;;;11.00;32.30;;;;;;5064077;28;20220;-42
2022/04/02 12:51:24;;;;;;;7.27;1.73;;;10.90;33.00;;;;;;5057900;28;20201;-43
2022/04/02 12:53:58;;;;;;;3.87;1.40;;;10.90;34.00;;;;;;5070379;28;20673;-45
2022/04/02 12:56:28;;;;;;;5.40;1.40;;;10.90;35.10;;;;;;5070064;28;20204;-45
2022/04/02 12:58:57;;;;;;;1.90;1.30;;;11.10;34.00;;;;;;5069036;28;20557;-43
2022/04/02 13:01:30;;;;;;;1.80;1.10;;;12.40;33.50;;;;;;5057472;28;20229;-46
2022/04/02 13:04:08;;;;;;;9.07;1.60;;;12.80;32.30;;;;;;5065185;28;20196;-43
2022/04/02 13:06:37;;;;;;;8.13;1.27;;;12.60;32.20;;;;;;5068633;28;20244;-49
2022/04/02 13:09:06;;;;;;;2.27;1.00;;;12.00;32.70;;;;;;5064936;28;20309;-48
2022/04/02 13:11:43;;;;;;;6.80;1.20;;;11.60;33.30;;;;;;5069340;28;20216;-42
2022/04/02 13:14:16;;;;;;;4.90;1.30;;;11.20;33.60;;;;;;5064748;28;20234;-49
2022/04/02 13:16:43;;;;;;;2.33;1.20;;;11.00;34.10;;;;;;5065872;28;20233;-47
2022/04/02 13:22:04;;;;;;;1.63;0.90;;;10.60;34.30;;;;;;5065749;28;20191;-45
2022/04/02 13:24:45;;;;;;;6.97;1.60;;;10.40;34.90;;;;;;5065910;28;20201;-44